createdAt,value
2019-05-06T16:32:15.121Z,97680.81
2019-05-06T16:34:43.086Z,97680.58
2019-05-06T16:37:09.827Z,97680.09
2019-05-06T16:39:36.562Z,97684.72
2019-05-06T16:42:03.878Z,97685.27
2019-05-06T16:44:31.087Z,97684.47
2019-05-06T16:46:57.974Z,97686.93
2019-05-06T16:49:24.553Z,97693.77
2019-05-06T16:51:53.332Z,97694.05
2019-05-06T16:54:20.173Z,97693.78
2019-05-06T16:56:55.607Z,97697.86
2019-05-06T16:59:23.833Z,97696.51
2019-05-06T17:01:52.300Z,97688.09
2019-05-06T17:04:26.645Z,97695.97
2019-05-06T17:06:53.547Z,97694.61
2019-05-06T17:09:23.894Z,97687.82
2019-05-06T17:11:49.051Z,97685.11
2019-05-06T17:14:15.742Z,97682.94
2019-05-06T17:16:43.281Z,97681.89
2019-05-06T17:19:09.926Z,97683.25
2019-05-06T17:21:36.455Z,97684.34
2019-05-06T17:24:13.447Z,97686.52
2019-05-06T17:26:42.417Z,97685.97
2019-05-06T17:29:26.121Z,97688.42
2019-05-06T17:32:02.532Z,97684.89
2019-05-06T17:34:32.193Z,97688.17
2019-05-06T17:37:04.528Z,97691.16
2019-05-06T17:39:32.698Z,97688.72
2019-05-06T17:41:59.942Z,97697.41
2019-05-06T17:44:26.476Z,97695.23
2019-05-06T17:47:07.503Z,97687.09
2019-05-06T17:49:34.550Z,97701.47
2019-05-06T17:52:07.041Z,97698.48
2019-05-06T17:54:33.723Z,97696.58
2019-05-06T17:57:03.859Z,97702.58
2019-05-06T17:59:29.153Z,97701.75
2019-05-06T18:01:58.703Z,97670.77
2019-05-06T18:04:25.786Z,97703.92
2019-05-06T18:06:56.276Z,97705.55
2019-05-06T18:09:23.170Z,97709.34
2019-05-06T18:11:58.481Z,97712.05
2019-05-06T18:14:20.084Z,97714.48
2019-05-06T18:16:46.824Z,97717.19
2019-05-06T18:19:13.403Z,97717.73
2019-05-06T18:21:40.112Z,97721.26
2019-05-06T18:24:09.687Z,97724.51
2019-05-06T18:26:35.413Z,97722.84
2019-05-06T18:29:02.661Z,97728.81
2019-05-06T18:31:29.273Z,97733.69
2019-05-06T18:33:55.921Z,97733.95
2019-05-06T18:36:22.861Z,97737.77
2019-05-06T18:38:49.489Z,97734.23
2019-05-06T18:41:16.240Z,97745.35
2019-05-06T18:43:42.915Z,97749.41
2019-05-06T18:46:11.675Z,97750.76
2019-05-06T18:48:38.331Z,97753.19
2019-05-06T18:51:04.929Z,97756.98
2019-05-06T18:53:33.248Z,97761.58
2019-05-06T18:56:03.067Z,97767.80
2019-05-06T18:58:30.612Z,97769.42
2019-05-06T19:00:57.236Z,97771.59
2019-05-06T19:03:25.631Z,97780.27
2019-05-06T19:05:53.027Z,97775.93
2019-05-06T19:08:33.202Z,97786.50
2019-05-06T19:10:59.938Z,97781.34
2019-05-06T19:13:26.584Z,97787.56
2019-05-06T19:15:53.425Z,97785.93
2019-05-06T19:18:22.379Z,97789.17
2019-05-06T19:20:48.734Z,97795.94
2019-05-06T19:23:15.413Z,97798.37
2019-05-06T19:25:42.851Z,97806.23
2019-05-06T19:28:09.518Z,97811.91
2019-05-06T19:30:36.307Z,97809.47
2019-05-06T19:33:03.222Z,97803.49
2019-05-06T19:35:32.353Z,97813.52
2019-05-06T19:37:59.544Z,97817.02
2019-05-06T19:40:26.109Z,97816.47
2019-05-06T19:42:53.398Z,97815.38
2019-05-06T19:45:22.465Z,97811.05
2019-05-06T19:47:49.351Z,97812.39
2019-05-06T19:50:21.016Z,97815.36
2019-05-06T19:52:46.638Z,97815.09
2019-05-06T19:55:13.433Z,97820.22
2019-05-06T19:57:40.241Z,97814.53
2019-05-06T20:00:07.589Z,97820.48
2019-05-06T20:02:34.253Z,97818.30
2019-05-06T20:05:05.739Z,97821.80
2019-05-06T20:08:04.289Z,97822.86
2019-05-06T20:10:49.462Z,97828.55
2019-05-06T20:13:16.177Z,97823.11
2019-05-06T20:15:42.980Z,97822.84
2019-05-06T20:18:10.140Z,97823.62
2019-05-06T20:20:36.956Z,97826.59
2019-05-06T20:23:03.965Z,97823.86
2019-05-06T20:25:32.601Z,97822.48
2019-05-06T20:27:59.263Z,97825.16
2019-05-06T20:30:27.093Z,97824.86
2019-05-06T20:32:53.846Z,97825.39
2019-05-06T20:35:23.780Z,97824.03
2019-05-06T20:37:50.793Z,97824.01
2019-05-06T20:40:17.561Z,97815.82
2019-05-06T20:42:44.313Z,97823.94
2019-05-06T20:45:12.804Z,97824.97
2019-05-06T20:47:39.641Z,97823.34
2019-05-06T20:50:07.152Z,97827.63
2019-05-06T20:52:33.847Z,97821.66
2019-05-06T20:55:02.781Z,97821.11
2019-05-06T20:57:29.529Z,97818.63
2019-05-06T20:59:56.259Z,97818.05
2019-05-06T21:02:25.570Z,97819.89
2019-05-06T21:04:51.886Z,97819.05
2019-05-06T21:07:18.620Z,97819.81
2019-05-06T21:09:45.250Z,97822.47
2019-05-06T21:12:11.890Z,97820.27
2019-05-06T21:14:38.580Z,97822.64
2019-05-06T21:17:05.432Z,97823.97
2019-05-06T21:19:33.107Z,97819.59
2019-05-06T21:22:02.195Z,97823.34
2019-05-06T21:24:28.709Z,97819.57
2019-05-06T21:26:55.372Z,97825.23
2019-05-06T21:29:23.265Z,97820.08
2019-05-06T21:31:50.046Z,97815.74
2019-05-06T21:34:16.729Z,97815.48
2019-05-06T21:36:43.268Z,97815.20
2019-05-06T21:39:10.189Z,97810.33
2019-05-06T21:41:36.823Z,97810.87
2019-05-06T21:44:03.724Z,97812.75
2019-05-06T21:46:31.910Z,97810.30
2019-05-06T21:48:58.979Z,97812.45
2019-05-06T21:51:25.667Z,97816.75
2019-05-06T21:53:52.197Z,97810.50
2019-05-06T21:56:18.848Z,97813.70
2019-05-06T21:58:45.485Z,97812.05
2019-05-06T22:01:12.642Z,97806.30
2019-05-06T22:03:43.197Z,97807.90
2019-05-06T22:06:10.092Z,97811.89
2019-05-06T22:08:36.629Z,97807.23
2019-05-06T22:11:03.616Z,97802.84
2019-05-06T22:13:30.283Z,97800.89
2019-05-06T22:15:56.935Z,97800.86
2019-05-06T22:18:23.685Z,97802.95
2019-05-06T22:21:13.556Z,97808.83
2019-05-06T22:24:08.770Z,97803.39
2019-05-06T22:26:35.301Z,97800.58
2019-05-06T22:29:02.401Z,97801.89
2019-05-06T22:31:28.933Z,97799.66
2019-05-06T22:33:55.700Z,97799.86
2019-05-06T22:36:22.998Z,97800.33
2019-05-06T22:38:49.650Z,97800.53
2019-05-06T22:41:16.464Z,97796.98
2019-05-06T22:43:43.102Z,97797.22
2019-05-06T22:46:09.699Z,97793.42
2019-05-06T22:48:36.333Z,97795.05
2019-05-06T22:51:03.151Z,97793.14
2019-05-06T22:53:29.798Z,97794.20
2019-05-06T22:55:58.872Z,97789.34
2019-05-06T22:58:25.496Z,97791.22
2019-05-06T23:00:53.728Z,97789.30
2019-05-06T23:03:22.794Z,97789.54
2019-05-06T23:05:49.347Z,97784.11
2019-05-06T23:08:16.012Z,97784.88
2019-05-06T23:10:42.669Z,97789.42
2019-05-06T23:13:09.229Z,97793.68
2019-05-06T23:15:35.763Z,97790.90
2019-05-06T23:18:02.462Z,97790.36
2019-05-06T23:20:29.038Z,97790.03
2019-05-06T23:22:55.571Z,97789.95
2019-05-06T23:25:22.275Z,97790.20
2019-05-06T23:27:48.809Z,97792.03
2019-05-06T23:30:15.526Z,97786.06
2019-05-06T23:32:42.387Z,97786.02
2019-05-06T23:35:09.078Z,97793.26
2019-05-06T23:38:12.638Z,97801.58
2019-05-06T23:41:16.180Z,97796.39
2019-05-06T23:44:19.756Z,97798.47
2019-05-06T23:47:23.441Z,97795.92
2019-05-06T23:50:27.268Z,97792.08
2019-05-06T23:53:32.548Z,97786.87
2019-05-06T23:56:35.824Z,97781.09
2019-05-06T23:59:02.579Z,97785.29
